createdAt,value
2017-01-02T00:00:12.471Z,15.30
2017-01-02T00:01:12.720Z,15.30
2017-01-02T00:02:12.447Z,15.30
2017-01-02T00:03:13.124Z,15.30
2017-01-02T00:04:11.268Z,15.30
2017-01-02T00:05:11.219Z,15.30
2017-01-02T00:06:11.285Z,15.30
2017-01-02T00:07:11.507Z,15.30
2017-01-02T00:08:09.285Z,15.30
2017-01-02T00:09:13.415Z,15.30
2017-01-02T00:10:13.623Z,15.30
2017-01-02T00:11:12.025Z,15.30
2017-01-02T00:12:11.975Z,15.30
2017-01-02T00:13:14.671Z,15.30
2017-01-02T00:14:12.233Z,15.30
2017-01-02T00:15:13.114Z,15.30
2017-01-02T00:16:12.198Z,15.30
2017-01-02T00:17:13.066Z,15.30
2017-01-02T00:18:11.288Z,15.30
2017-01-02T00:19:11.244Z,15.30
2017-01-02T00:20:12.811Z,15.30
2017-01-02T00:21:12.496Z,15.30
2017-01-02T00:22:12.437Z,15.30
2017-01-02T00:23:09.141Z,15.30
2017-01-02T00:24:13.113Z,15.30
2017-01-02T00:25:11.802Z,15.30
2017-01-02T00:26:11.920Z,15.30
2017-01-02T00:27:10.645Z,15.30
2017-01-02T00:28:10.636Z,15.30
2017-01-02T00:29:11.438Z,15.30
2017-01-02T00:30:12.100Z,15.30
2017-01-02T00:31:14.229Z,15.30
2017-01-02T00:32:11.890Z,15.30
2017-01-02T00:33:14.939Z,15.30
2017-01-02T00:34:10.301Z,15.30
2017-01-02T00:35:09.699Z,15.30
2017-01-02T00:36:11.620Z,15.30
2017-01-02T00:37:11.682Z,15.30
2017-01-02T00:38:11.775Z,15.30
2017-01-02T00:39:09.158Z,15.30
2017-01-02T00:40:11.847Z,15.20
2017-01-02T00:41:11.910Z,15.30
2017-01-02T00:42:12.602Z,15.30
2017-01-02T00:43:11.738Z,15.20
2017-01-02T00:44:12.410Z,15.30
2017-01-02T00:45:11.596Z,15.30
2017-01-02T00:46:10.058Z,15.20
2017-01-02T00:47:13.218Z,15.20
2017-01-02T00:48:11.869Z,15.20
2017-01-02T00:49:11.909Z,15.20
2017-01-02T00:50:12.050Z,15.20
2017-01-02T00:51:11.239Z,15.20
2017-01-02T00:52:11.921Z,15.20
2017-01-02T00:53:12.581Z,15.20
2017-01-02T00:54:12.292Z,15.20
2017-01-02T00:55:13.837Z,15.20
2017-01-02T00:56:12.459Z,15.20
2017-01-02T00:57:11.610Z,15.20
2017-01-02T00:58:13.723Z,15.20
2017-01-02T00:59:13.044Z,15.20
2017-01-02T01:00:11.819Z,15.20
2017-01-02T01:01:12.440Z,15.20
2017-01-02T01:02:11.511Z,15.20
2017-01-02T01:03:11.641Z,15.20
2017-01-02T01:04:13.574Z,15.20
2017-01-02T01:05:12.216Z,15.20
2017-01-02T01:06:11.730Z,15.20
2017-01-02T01:07:12.427Z,15.20
2017-01-02T01:08:11.244Z,15.20
2017-01-02T01:09:11.251Z,15.20
2017-01-02T01:10:12.094Z,15.20
2017-01-02T01:11:09.815Z,15.20
2017-01-02T01:12:12.833Z,15.20
2017-01-02T01:13:12.791Z,15.20
2017-01-02T01:14:11.989Z,15.20
2017-01-02T01:15:13.307Z,15.20
2017-01-02T01:16:14.649Z,15.20
2017-01-02T01:17:12.355Z,15.20
2017-01-02T01:18:11.495Z,15.20
2017-01-02T01:19:13.781Z,15.20
2017-01-02T01:20:11.951Z,15.20
2017-01-02T01:21:10.004Z,15.20
2017-01-02T01:22:12.051Z,15.20
2017-01-02T01:23:12.699Z,15.20
2017-01-02T01:24:12.399Z,15.20
2017-01-02T01:25:15.800Z,15.20
2017-01-02T01:26:11.892Z,15.20
2017-01-02T01:27:12.761Z,15.20
2017-01-02T01:28:13.650Z,15.20
2017-01-02T01:29:11.108Z,15.20
2017-01-02T01:30:12.013Z,15.20
2017-01-02T01:31:12.328Z,15.20
2017-01-02T01:32:12.039Z,15.20
2017-01-02T01:33:11.179Z,15.20
2017-01-02T01:34:11.978Z,15.20
2017-01-02T01:35:11.784Z,15.20
2017-01-02T01:36:12.332Z,15.20
2017-01-02T01:37:11.869Z,15.20
2017-01-02T01:38:12.510Z,15.20
2017-01-02T01:39:12.473Z,15.20
2017-01-02T01:40:12.580Z,15.20
2017-01-02T01:41:14.482Z,15.20
2017-01-02T01:42:11.554Z,15.20
2017-01-02T01:43:11.670Z,15.20
2017-01-02T01:44:10.453Z,15.20
2017-01-02T01:45:11.977Z,15.20
2017-01-02T01:46:11.592Z,15.20
2017-01-02T01:47:11.910Z,15.20
2017-01-02T01:48:12.012Z,15.20
2017-01-02T01:49:11.891Z,15.20
2017-01-02T01:50:14.613Z,15.20
2017-01-02T01:51:11.855Z,15.20
2017-01-02T01:52:12.925Z,15.20
2017-01-02T01:53:13.859Z,15.20
2017-01-02T01:54:14.633Z,15.20
2017-01-02T01:55:11.757Z,15.20
2017-01-02T01:56:13.428Z,15.20
2017-01-02T01:57:12.302Z,15.20
2017-01-02T01:58:11.742Z,15.20
2017-01-02T01:59:12.430Z,15.20
2017-01-02T02:00:11.453Z,15.20
2017-01-02T02:01:11.618Z,15.20
2017-01-02T02:02:12.581Z,15.20
2017-01-02T02:03:13.207Z,15.20
2017-01-02T02:04:12.014Z,15.20
2017-01-02T02:05:12.557Z,15.20
2017-01-02T02:06:12.567Z,15.20
2017-01-02T02:07:11.544Z,15.20
2017-01-02T02:08:12.592Z,15.20
2017-01-02T02:09:12.947Z,15.20
2017-01-02T02:10:12.687Z,15.20
2017-01-02T02:11:12.258Z,15.20
2017-01-02T02:12:12.001Z,15.20
2017-01-02T02:13:12.669Z,15.20
2017-01-02T02:14:12.325Z,15.20
2017-01-02T02:15:12.519Z,15.20
2017-01-02T02:16:12.415Z,15.20
2017-01-02T02:17:11.684Z,15.20
2017-01-02T02:18:13.301Z,15.20
2017-01-02T02:19:11.744Z,15.20
2017-01-02T02:20:12.649Z,15.20
2017-01-02T02:21:12.393Z,15.20
2017-01-02T02:22:12.640Z,15.20
2017-01-02T02:23:11.852Z,15.20
2017-01-02T02:24:12.966Z,15.20
2017-01-02T02:25:11.693Z,15.20
2017-01-02T02:26:11.813Z,15.20
2017-01-02T02:27:13.098Z,15.20
2017-01-02T02:28:12.186Z,15.20
2017-01-02T02:29:12.008Z,15.20
2017-01-02T02:30:12.448Z,15.20
2017-01-02T02:31:11.670Z,15.20
2017-01-02T02:32:12.327Z,15.20
2017-01-02T02:33:11.939Z,15.10
2017-01-02T02:34:12.860Z,15.20
2017-01-02T02:35:13.010Z,15.20
2017-01-02T02:36:11.200Z,15.10
2017-01-02T02:37:12.174Z,15.10
2017-01-02T02:38:11.913Z,15.10
2017-01-02T02:39:11.865Z,15.20
2017-01-02T02:40:12.997Z,15.10
2017-01-02T02:41:11.841Z,15.20
2017-01-02T02:42:12.512Z,15.10
2017-01-02T02:43:11.465Z,15.10
2017-01-02T02:44:12.361Z,15.10
2017-01-02T02:45:11.521Z,15.10
2017-01-02T02:46:13.345Z,15.10
2017-01-02T02:47:10.221Z,15.10
2017-01-02T02:48:14.898Z,15.10
2017-01-02T02:49:12.070Z,15.10
2017-01-02T02:50:11.780Z,15.10
2017-01-02T02:51:11.791Z,15.10
2017-01-02T02:52:12.541Z,15.10
2017-01-02T02:53:11.555Z,15.10
2017-01-02T02:54:12.524Z,15.10
2017-01-02T02:55:12.560Z,15.10
2017-01-02T02:56:11.679Z,15.10
2017-01-02T02:57:11.852Z,15.10
2017-01-02T02:58:12.409Z,15.10
2017-01-02T02:59:12.103Z,15.10
2017-01-02T03:00:11.181Z,15.10
2017-01-02T03:01:11.944Z,15.10
2017-01-02T03:02:11.944Z,15.10
2017-01-02T03:03:11.961Z,15.10
2017-01-02T03:04:11.025Z,15.10
2017-01-02T03:05:12.747Z,15.10
2017-01-02T03:06:11.884Z,15.10
2017-01-02T03:07:12.582Z,15.10
2017-01-02T03:08:11.827Z,15.10
2017-01-02T03:09:11.831Z,15.10
2017-01-02T03:10:12.384Z,15.10
2017-01-02T03:11:12.299Z,15.10
2017-01-02T03:12:11.262Z,15.10
2017-01-02T03:13:11.353Z,15.10
2017-01-02T03:14:11.355Z,15.10
2017-01-02T03:15:13.064Z,15.10
2017-01-02T03:16:11.893Z,15.10
2017-01-02T03:17:12.332Z,15.10
2017-01-02T03:18:11.377Z,15.10
2017-01-02T03:19:12.270Z,15.10
2017-01-02T03:20:12.885Z,15.10
2017-01-02T03:21:12.813Z,15.10
2017-01-02T03:22:13.164Z,15.10
2017-01-02T03:23:11.848Z,15.10
2017-01-02T03:24:11.941Z,15.10
2017-01-02T03:25:13.713Z,15.10
2017-01-02T03:26:10.346Z,15.10
2017-01-02T03:27:12.441Z,15.10
2017-01-02T03:28:12.280Z,15.10
2017-01-02T03:29:11.443Z,15.10
2017-01-02T03:30:13.157Z,15.10
2017-01-02T03:31:11.834Z,15.10
2017-01-02T03:32:12.579Z,15.10
2017-01-02T03:33:11.541Z,15.10
2017-01-02T03:34:11.490Z,15.10
2017-01-02T03:35:12.014Z,15.10
2017-01-02T03:36:12.703Z,15.10
2017-01-02T03:37:12.523Z,15.10
2017-01-02T03:38:11.864Z,15.10
2017-01-02T03:39:12.048Z,15.10
2017-01-02T03:40:12.695Z,15.10
2017-01-02T03:41:12.068Z,15.10
2017-01-02T03:42:12.315Z,15.10
2017-01-02T03:43:11.302Z,15.10
2017-01-02T03:44:12.353Z,15.10
2017-01-02T03:45:11.380Z,15.10
2017-01-02T03:46:12.243Z,15.10
2017-01-02T03:47:11.172Z,15.10
2017-01-02T03:48:11.291Z,15.10
2017-01-02T03:49:11.401Z,15.10
2017-01-02T03:50:12.536Z,15.10
2017-01-02T03:51:11.643Z,15.10
2017-01-02T03:52:11.677Z,15.10
2017-01-02T03:53:11.943Z,15.10
2017-01-02T03:54:12.015Z,15.10
2017-01-02T03:55:12.806Z,15.10
2017-01-02T03:56:12.614Z,15.10
2017-01-02T03:57:12.296Z,15.10
2017-01-02T03:58:09.709Z,15.10
2017-01-02T03:59:11.877Z,15.10
2017-01-02T04:00:12.555Z,15.10
2017-01-02T04:01:11.895Z,15.10
2017-01-02T04:02:12.578Z,15.10
2017-01-02T04:03:11.764Z,15.10
2017-01-02T04:04:12.882Z,15.10
2017-01-02T04:05:12.603Z,15.10
2017-01-02T04:06:13.371Z,15.10
2017-01-02T04:07:11.356Z,15.10
2017-01-02T04:08:12.283Z,15.10
2017-01-02T04:09:11.789Z,15.10
2017-01-02T04:10:12.643Z,15.10
2017-01-02T04:11:12.893Z,15.10
2017-01-02T04:12:11.983Z,15.10
2017-01-02T04:13:12.052Z,15.10
2017-01-02T04:14:13.124Z,15.10
2017-01-02T04:15:12.086Z,15.10
2017-01-02T04:16:09.538Z,15.10
2017-01-02T04:17:14.238Z,15.10
2017-01-02T04:18:12.491Z,15.10
2017-01-02T04:19:13.213Z,15.10
2017-01-02T04:20:10.163Z,15.10
2017-01-02T04:21:12.356Z,15.10
2017-01-02T04:22:11.471Z,15.10
2017-01-02T04:23:11.653Z,15.10
2017-01-02T04:24:13.422Z,15.10
2017-01-02T04:25:12.482Z,15.10
2017-01-02T04:26:12.267Z,15.10
2017-01-02T04:27:12.758Z,15.10
2017-01-02T04:28:12.972Z,15.10
2017-01-02T04:29:12.465Z,15.10
2017-01-02T04:30:12.072Z,15.10
2017-01-02T04:31:11.954Z,15.10
2017-01-02T04:32:12.612Z,15.10
2017-01-02T04:33:14.591Z,15.10
2017-01-02T04:34:11.798Z,15.10
2017-01-02T04:35:12.034Z,15.10
2017-01-02T04:36:13.342Z,15.10
2017-01-02T04:37:12.239Z,15.10
2017-01-02T04:38:11.229Z,15.10
2017-01-02T04:39:11.342Z,15.10
2017-01-02T04:40:11.358Z,15.10
2017-01-02T04:41:11.901Z,15.10
2017-01-02T04:42:11.723Z,15.10
2017-01-02T04:43:12.444Z,15.10
2017-01-02T04:44:12.249Z,15.10
2017-01-02T04:45:12.193Z,15.10
2017-01-02T04:46:12.295Z,15.10
2017-01-02T04:47:12.411Z,15.10
2017-01-02T04:48:12.390Z,15.10
2017-01-02T04:49:11.482Z,15.10
2017-01-02T04:50:11.523Z,15.10
2017-01-02T04:51:12.168Z,15.10
2017-01-02T04:52:11.263Z,15.10
2017-01-02T04:53:11.928Z,15.10
2017-01-02T04:54:12.929Z,15.10
2017-01-02T04:55:12.546Z,15.10
2017-01-02T04:56:11.678Z,15.10
2017-01-02T04:57:12.109Z,15.10
2017-01-02T04:58:12.806Z,15.10
2017-01-02T04:59:12.054Z,15.10
2017-01-02T05:00:11.111Z,15.10
2017-01-02T05:01:11.941Z,15.10
2017-01-02T05:02:12.648Z,15.10
2017-01-02T05:03:11.697Z,15.10
2017-01-02T05:04:12.337Z,15.10
2017-01-02T05:05:11.502Z,15.10
2017-01-02T05:06:10.320Z,15.10
2017-01-02T05:07:12.294Z,15.10
2017-01-02T05:08:12.034Z,15.10
2017-01-02T05:09:16.156Z,15.10
2017-01-02T05:10:12.091Z,15.10
2017-01-02T05:11:11.100Z,15.10
2017-01-02T05:12:11.753Z,15.10
2017-01-02T05:13:11.652Z,15.10
2017-01-02T05:14:12.340Z,15.10
2017-01-02T05:15:13.371Z,15.10
2017-01-02T05:16:12.267Z,15.10
2017-01-02T05:17:11.408Z,15.10
2017-01-02T05:18:09.968Z,15.10
2017-01-02T05:19:12.048Z,15.10
2017-01-02T05:20:11.176Z,15.10
2017-01-02T05:21:13.058Z,15.10
2017-01-02T05:22:11.630Z,15.10
2017-01-02T05:23:11.700Z,15.10
2017-01-02T05:24:12.289Z,15.10
2017-01-02T05:25:15.604Z,15.10
2017-01-02T05:26:16.549Z,15.10
2017-01-02T05:27:15.320Z,15.10
2017-01-02T05:28:11.803Z,15.10
2017-01-02T05:29:12.429Z,15.10
2017-01-02T05:30:13.237Z,15.10
2017-01-02T05:31:12.347Z,15.10
2017-01-02T05:32:11.449Z,15.10
2017-01-02T05:33:11.338Z,15.10
2017-01-02T05:34:11.822Z,15.10
2017-01-02T05:35:11.857Z,15.10
2017-01-02T05:36:12.033Z,15.10
2017-01-02T05:37:11.106Z,15.10
2017-01-02T05:38:08.461Z,15.10
2017-01-02T05:39:11.808Z,15.10
2017-01-02T05:40:11.945Z,15.10
2017-01-02T05:41:12.631Z,15.10
2017-01-02T05:42:13.247Z,15.10
2017-01-02T05:43:12.090Z,15.10
2017-01-02T05:44:11.966Z,15.10
2017-01-02T05:45:11.854Z,15.10
2017-01-02T05:46:12.427Z,15.00
2017-01-02T05:47:11.517Z,15.10
2017-01-02T05:48:12.463Z,15.10
2017-01-02T05:49:11.510Z,15.10
2017-01-02T05:50:12.108Z,15.10
2017-01-02T05:51:11.110Z,15.00
2017-01-02T05:52:09.705Z,15.10
2017-01-02T05:53:12.936Z,15.10
2017-01-02T05:54:12.633Z,15.00
2017-01-02T05:55:13.248Z,15.10
2017-01-02T05:56:12.088Z,15.10
2017-01-02T05:57:11.260Z,15.10
2017-01-02T05:58:12.149Z,15.10
2017-01-02T05:59:11.277Z,15.10
2017-01-02T06:00:11.878Z,15.10
2017-01-02T06:01:11.970Z,15.10
2017-01-02T06:02:09.754Z,15.10
2017-01-02T06:03:12.769Z,15.10
2017-01-02T06:04:11.795Z,15.10
2017-01-02T06:05:11.391Z,15.10
2017-01-02T06:06:11.518Z,15.10
2017-01-02T06:07:12.347Z,15.00
2017-01-02T06:08:12.376Z,15.10
2017-01-02T06:09:12.893Z,15.10
2017-01-02T06:10:13.426Z,15.10
2017-01-02T06:11:11.593Z,15.10
2017-01-02T06:12:11.670Z,15.10
2017-01-02T06:13:12.411Z,15.10
2017-01-02T06:14:11.876Z,15.10
2017-01-02T06:15:11.784Z,15.10
2017-01-02T06:16:11.741Z,15.00
2017-01-02T06:17:12.502Z,15.10
2017-01-02T06:18:11.622Z,15.10
2017-01-02T06:19:12.359Z,15.00
2017-01-02T06:20:11.399Z,15.10
2017-01-02T06:21:13.067Z,15.10
2017-01-02T06:22:12.780Z,15.00
2017-01-02T06:23:11.827Z,15.00
2017-01-02T06:24:11.945Z,15.10
2017-01-02T06:25:13.866Z,15.00
2017-01-02T06:26:11.941Z,15.10
2017-01-02T06:27:11.817Z,15.10
2017-01-02T06:28:12.379Z,15.00
2017-01-02T06:29:11.539Z,15.00
2017-01-02T06:30:12.291Z,15.10
2017-01-02T06:31:12.016Z,15.00
2017-01-02T06:32:11.760Z,15.10
2017-01-02T06:33:14.479Z,15.00
2017-01-02T06:34:12.306Z,15.00
2017-01-02T06:35:11.429Z,15.00
2017-01-02T06:36:11.456Z,15.00
2017-01-02T06:37:12.093Z,15.00
2017-01-02T06:38:11.659Z,15.00
2017-01-02T06:39:12.000Z,15.10
2017-01-02T06:40:12.129Z,15.00
2017-01-02T06:41:11.304Z,15.00
2017-01-02T06:42:11.952Z,15.00
2017-01-02T06:43:12.087Z,15.00
2017-01-02T06:44:11.382Z,15.00
2017-01-02T06:45:12.146Z,15.00
2017-01-02T06:46:12.442Z,15.10
2017-01-02T06:47:12.095Z,15.00
2017-01-02T06:48:13.028Z,15.00
2017-01-02T06:49:11.143Z,15.00
2017-01-02T06:50:09.840Z,15.00
2017-01-02T06:51:11.136Z,15.00
2017-01-02T06:52:12.108Z,15.00
2017-01-02T06:53:11.279Z,15.00
2017-01-02T06:54:11.457Z,15.00
2017-01-02T06:55:11.570Z,15.10
2017-01-02T06:56:11.674Z,15.10
2017-01-02T06:57:11.707Z,15.10
2017-01-02T06:58:10.390Z,15.10
2017-01-02T06:59:12.264Z,15.10
2017-01-02T07:00:11.959Z,15.10
2017-01-02T07:01:12.622Z,15.00
2017-01-02T07:02:11.890Z,15.00
2017-01-02T07:03:12.532Z,15.10
2017-01-02T07:04:12.135Z,15.10
2017-01-02T07:05:11.109Z,15.10
2017-01-02T07:06:11.128Z,15.10
2017-01-02T07:07:11.011Z,15.10
2017-01-02T07:08:12.954Z,15.00
2017-01-02T07:09:09.449Z,15.10
2017-01-02T07:10:11.967Z,15.00
2017-01-02T07:11:14.933Z,15.00
2017-01-02T07:12:12.078Z,15.00
2017-01-02T07:13:12.252Z,15.00
2017-01-02T07:14:12.034Z,15.00
2017-01-02T07:15:11.740Z,15.00
2017-01-02T07:16:12.850Z,15.00
2017-01-02T07:17:12.547Z,15.00
2017-01-02T07:18:12.178Z,15.00
2017-01-02T07:19:11.099Z,15.00
2017-01-02T07:20:12.677Z,15.00
2017-01-02T07:21:12.312Z,15.00
2017-01-02T07:22:11.367Z,15.00
2017-01-02T07:23:11.352Z,15.00
2017-01-02T07:24:12.195Z,15.00
2017-01-02T07:25:11.245Z,15.00
2017-01-02T07:26:11.997Z,15.00
2017-01-02T07:27:11.979Z,15.00
2017-01-02T07:28:12.862Z,15.00
2017-01-02T07:29:11.948Z,15.00
2017-01-02T07:30:11.988Z,15.00
2017-01-02T07:31:11.740Z,15.00
2017-01-02T07:32:13.717Z,15.00
2017-01-02T07:33:09.046Z,15.00
2017-01-02T07:34:11.800Z,15.00
2017-01-02T07:35:11.796Z,15.00
2017-01-02T07:36:12.601Z,15.00
2017-01-02T07:37:11.699Z,15.00
2017-01-02T07:38:11.957Z,15.00
2017-01-02T07:39:12.432Z,15.00
2017-01-02T07:40:12.477Z,15.00
2017-01-02T07:41:13.370Z,15.00
2017-01-02T07:42:11.280Z,15.00
2017-01-02T07:43:11.714Z,15.00
2017-01-02T07:44:11.955Z,15.00
2017-01-02T07:45:12.470Z,15.00
2017-01-02T07:46:12.384Z,15.00
2017-01-02T07:47:12.741Z,15.00
2017-01-02T07:48:11.750Z,15.00
2017-01-02T07:49:13.508Z,15.00
2017-01-02T07:50:12.674Z,15.00
2017-01-02T07:51:15.285Z,15.00
2017-01-02T07:52:10.346Z,15.00
2017-01-02T07:53:13.396Z,15.00
2017-01-02T07:54:13.377Z,15.00
2017-01-02T07:55:11.559Z,15.00
2017-01-02T07:56:11.849Z,15.00
2017-01-02T07:57:11.988Z,15.00
2017-01-02T07:58:12.605Z,15.00
2017-01-02T07:59:12.458Z,15.00
2017-01-02T08:00:11.547Z,15.00
2017-01-02T08:01:12.168Z,15.00
2017-01-02T08:02:11.197Z,15.00
2017-01-02T08:03:11.304Z,15.00
2017-01-02T08:04:12.143Z,15.00
2017-01-02T08:05:11.756Z,15.00
2017-01-02T08:06:12.249Z,15.00
2017-01-02T08:07:11.345Z,15.00
2017-01-02T08:08:12.132Z,15.00
2017-01-02T08:09:11.899Z,15.00
2017-01-02T08:10:12.027Z,15.00
2017-01-02T08:11:12.172Z,15.00
2017-01-02T08:12:11.229Z,15.00
2017-01-02T08:13:12.043Z,15.00
2017-01-02T08:14:11.658Z,15.00
2017-01-02T08:15:11.687Z,15.00
2017-01-02T08:16:12.477Z,15.00
2017-01-02T08:17:13.361Z,15.00
2017-01-02T08:18:11.495Z,15.00
2017-01-02T08:19:11.548Z,15.00
2017-01-02T08:20:12.228Z,15.00
2017-01-02T08:21:14.060Z,15.00
2017-01-02T08:22:12.720Z,15.00
2017-01-02T08:23:11.971Z,15.00
2017-01-02T08:24:12.684Z,15.00
2017-01-02T08:25:10.206Z,15.00
2017-01-02T08:26:12.336Z,15.00
2017-01-02T08:27:12.089Z,15.00
2017-01-02T08:28:11.896Z,15.00
2017-01-02T08:29:12.411Z,15.00
2017-01-02T08:30:11.508Z,15.00
2017-01-02T08:31:11.672Z,15.00
2017-01-02T08:32:13.985Z,15.00
2017-01-02T08:33:11.913Z,15.00
2017-01-02T08:34:13.702Z,15.00
2017-01-02T08:35:12.332Z,15.00
2017-01-02T08:36:11.867Z,15.00
2017-01-02T08:37:12.402Z,15.00
2017-01-02T08:38:11.550Z,15.00
2017-01-02T08:39:12.417Z,15.00
2017-01-02T08:40:12.331Z,15.00
2017-01-02T08:41:12.066Z,15.00
2017-01-02T08:42:11.779Z,15.00
2017-01-02T08:43:10.675Z,15.00
2017-01-02T08:44:11.999Z,15.00
2017-01-02T08:45:10.655Z,15.00
2017-01-02T08:46:11.235Z,15.00
2017-01-02T08:47:11.903Z,15.00
2017-01-02T08:48:12.649Z,15.00
2017-01-02T08:49:11.815Z,15.00
2017-01-02T08:50:10.319Z,15.00
2017-01-02T08:51:12.567Z,15.00
2017-01-02T08:52:12.302Z,15.00
2017-01-02T08:53:12.260Z,15.00
2017-01-02T08:54:11.322Z,15.00
2017-01-02T08:55:11.528Z,15.00
2017-01-02T08:56:11.556Z,15.00
2017-01-02T08:57:12.168Z,15.00
2017-01-02T08:58:11.300Z,15.00
2017-01-02T08:59:11.936Z,15.00
2017-01-02T09:00:12.002Z,15.00
2017-01-02T09:01:12.559Z,15.00
2017-01-02T09:02:13.777Z,15.00
2017-01-02T09:03:11.848Z,15.00
2017-01-02T09:04:12.395Z,15.00
2017-01-02T09:05:11.546Z,15.00
2017-01-02T09:06:11.419Z,15.00
2017-01-02T09:07:10.029Z,15.00
2017-01-02T09:08:11.973Z,15.00
2017-01-02T09:09:11.971Z,15.00
2017-01-02T09:10:12.132Z,15.00
2017-01-02T09:11:12.173Z,15.00
2017-01-02T09:12:14.152Z,15.00
2017-01-02T09:13:11.850Z,15.00
2017-01-02T09:14:12.602Z,15.00
2017-01-02T09:15:12.319Z,15.00
2017-01-02T09:16:13.099Z,15.00
2017-01-02T09:17:11.903Z,15.00
2017-01-02T09:18:11.901Z,15.00
2017-01-02T09:19:12.495Z,15.00
2017-01-02T09:20:11.782Z,15.00
2017-01-02T09:21:11.906Z,15.00
2017-01-02T09:22:12.188Z,15.00
2017-01-02T09:23:11.297Z,15.00
2017-01-02T09:24:14.220Z,15.00
2017-01-02T09:25:12.259Z,15.00
2017-01-02T09:26:10.559Z,15.00
2017-01-02T09:27:11.257Z,15.00
2017-01-02T09:28:11.378Z,15.00
2017-01-02T09:29:11.430Z,15.00
2017-01-02T09:30:09.719Z,15.00
2017-01-02T09:31:11.182Z,15.00
2017-01-02T09:32:11.294Z,15.00
2017-01-02T09:33:11.569Z,15.00
2017-01-02T09:34:11.591Z,15.00
2017-01-02T09:35:11.596Z,15.00
2017-01-02T09:36:12.428Z,15.00
2017-01-02T09:37:11.398Z,15.00
2017-01-02T09:38:11.512Z,15.00
2017-01-02T09:39:12.511Z,15.00
2017-01-02T09:40:10.141Z,15.00
2017-01-02T09:41:12.015Z,15.00
2017-01-02T09:42:09.640Z,15.00
2017-01-02T09:43:11.132Z,15.00
2017-01-02T09:44:09.928Z,15.00
2017-01-02T09:45:11.898Z,15.00
2017-01-02T09:46:09.758Z,15.00
2017-01-02T09:47:11.300Z,15.00
2017-01-02T09:48:11.605Z,15.00
2017-01-02T09:49:11.539Z,15.00
2017-01-02T09:50:11.584Z,15.00
2017-01-02T09:51:12.390Z,15.00
2017-01-02T09:52:11.973Z,15.00
2017-01-02T09:53:10.338Z,15.00
2017-01-02T09:54:11.889Z,15.00
2017-01-02T09:55:12.765Z,15.00
2017-01-02T09:56:12.482Z,15.00
2017-01-02T09:57:13.167Z,15.00
2017-01-02T09:58:09.474Z,15.00
2017-01-02T09:59:12.692Z,15.00
2017-01-02T10:00:13.709Z,15.00
2017-01-02T10:01:13.968Z,15.00
2017-01-02T10:02:12.744Z,15.00
2017-01-02T10:03:14.489Z,15.00
2017-01-02T10:04:09.116Z,15.00
2017-01-02T10:05:12.003Z,15.00
2017-01-02T10:06:12.749Z,15.00
2017-01-02T10:07:13.499Z,15.00
2017-01-02T10:08:11.591Z,15.00
2017-01-02T10:09:12.355Z,15.00
2017-01-02T10:10:12.968Z,15.00
2017-01-02T10:11:11.512Z,15.00
2017-01-02T10:12:12.070Z,15.00
2017-01-02T10:13:09.586Z,15.00
2017-01-02T10:14:11.777Z,15.00
2017-01-02T10:15:12.258Z,15.00
2017-01-02T10:16:13.081Z,15.00
2017-01-02T10:17:11.857Z,15.00
2017-01-02T10:18:12.546Z,15.00
2017-01-02T10:19:11.671Z,15.00
2017-01-02T10:20:13.303Z,15.00
2017-01-02T10:21:11.321Z,15.00
2017-01-02T10:22:09.975Z,15.00
2017-01-02T10:23:12.012Z,15.00
2017-01-02T10:24:12.406Z,15.00
2017-01-02T10:25:11.512Z,15.00
2017-01-02T10:26:11.530Z,15.00
2017-01-02T10:27:13.320Z,15.00
2017-01-02T10:28:11.452Z,15.00
2017-01-02T10:29:11.579Z,15.00
2017-01-02T10:30:11.728Z,15.00
2017-01-02T10:31:11.839Z,15.00
2017-01-02T10:32:14.000Z,15.00
2017-01-02T10:33:11.897Z,15.00
2017-01-02T10:34:11.520Z,15.00
2017-01-02T10:35:12.196Z,15.00
2017-01-02T10:36:11.324Z,15.00
2017-01-02T10:37:11.517Z,15.00
2017-01-02T10:38:11.563Z,15.00
2017-01-02T10:39:12.218Z,15.00
2017-01-02T10:40:11.156Z,15.00
2017-01-02T10:41:11.162Z,15.00
2017-01-02T10:42:11.898Z,15.00
2017-01-02T10:43:12.054Z,15.00
2017-01-02T10:44:11.747Z,15.00
2017-01-02T10:45:13.343Z,15.00
2017-01-02T10:46:13.415Z,15.00
2017-01-02T10:47:11.558Z,15.00
2017-01-02T10:48:13.607Z,15.00
2017-01-02T10:49:11.137Z,15.00
2017-01-02T10:50:11.249Z,15.00
2017-01-02T10:51:10.183Z,15.00
2017-01-02T10:52:10.038Z,15.00
2017-01-02T10:53:10.213Z,15.00
2017-01-02T10:54:11.753Z,15.00
2017-01-02T10:55:12.547Z,15.00
2017-01-02T10:56:13.282Z,15.00
2017-01-02T10:57:11.412Z,15.00
2017-01-02T10:58:12.490Z,15.00
2017-01-02T10:59:12.589Z,15.00
2017-01-02T11:00:11.799Z,15.00
2017-01-02T11:01:11.858Z,15.00
2017-01-02T11:02:10.515Z,15.00
2017-01-02T11:03:11.991Z,15.00
2017-01-02T11:04:11.696Z,15.00
2017-01-02T11:05:15.531Z,15.00
2017-01-02T11:06:12.193Z,15.00
2017-01-02T11:07:12.016Z,15.00
2017-01-02T11:08:11.202Z,15.00
2017-01-02T11:09:11.999Z,15.00
2017-01-02T11:10:12.164Z,14.60
2017-01-02T11:11:11.780Z,13.00
2017-01-02T11:12:11.866Z,11.20
2017-01-02T11:13:13.321Z,10.20
2017-01-02T11:14:14.583Z,9.50
2017-01-02T11:15:12.534Z,8.90
2017-01-02T11:16:12.508Z,8.70
2017-01-02T11:17:12.151Z,8.60
2017-01-02T11:18:11.840Z,8.70
2017-01-02T11:19:11.820Z,8.60
2017-01-02T11:20:12.939Z,8.50
2017-01-02T11:21:11.999Z,8.30
2017-01-02T11:22:11.705Z,8.10
2017-01-02T11:23:12.589Z,8.00
2017-01-02T11:24:08.888Z,7.80
2017-01-02T11:25:11.694Z,7.70
2017-01-02T11:26:10.498Z,7.90
2017-01-02T11:27:11.870Z,8.40
2017-01-02T11:28:11.880Z,8.90
2017-01-02T11:29:13.553Z,9.40
2017-01-02T11:30:11.624Z,9.90
2017-01-02T11:31:13.175Z,10.40
2017-01-02T11:32:12.031Z,10.80
2017-01-02T11:33:11.192Z,11.20
2017-01-02T11:34:11.445Z,11.50
2017-01-02T11:35:12.095Z,11.80
2017-01-02T11:36:11.547Z,12.00
2017-01-02T11:37:12.560Z,12.30
2017-01-02T11:38:12.409Z,12.50
2017-01-02T11:39:11.572Z,12.70
2017-01-02T11:40:11.886Z,12.90
2017-01-02T11:41:10.799Z,13.00
2017-01-02T11:42:13.340Z,13.20
2017-01-02T11:43:11.992Z,13.30
2017-01-02T11:44:12.016Z,13.40
2017-01-02T11:45:12.212Z,13.60
2017-01-02T11:46:11.701Z,13.70
2017-01-02T11:47:12.409Z,13.70
2017-01-02T11:48:12.190Z,13.80
2017-01-02T11:49:11.300Z,13.90
2017-01-02T11:50:12.027Z,14.00
2017-01-02T11:51:11.190Z,14.10
2017-01-02T11:52:11.182Z,14.10
2017-01-02T11:53:11.309Z,14.20
2017-01-02T11:54:11.389Z,14.30
2017-01-02T11:55:12.393Z,14.30
2017-01-02T11:56:11.427Z,14.40
2017-01-02T11:57:13.290Z,14.40
2017-01-02T11:58:11.219Z,14.50
2017-01-02T11:59:11.699Z,14.50
2017-01-02T12:00:12.580Z,14.60
2017-01-02T12:01:11.810Z,14.60
2017-01-02T12:02:11.779Z,14.70
2017-01-02T12:03:12.513Z,14.70
2017-01-02T12:04:12.139Z,14.80
2017-01-02T12:05:12.184Z,14.80
2017-01-02T12:06:08.719Z,14.80
2017-01-02T12:07:14.745Z,14.90
2017-01-02T12:08:13.218Z,14.90
2017-01-02T12:09:13.243Z,15.00
2017-01-02T12:10:14.153Z,15.00
2017-01-02T12:11:12.168Z,15.00
2017-01-02T12:12:12.663Z,15.00
2017-01-02T12:13:12.650Z,15.10
2017-01-02T12:14:14.122Z,15.10
2017-01-02T12:15:12.159Z,15.10
2017-01-02T12:16:12.411Z,15.20
2017-01-02T12:17:10.912Z,15.20
2017-01-02T12:18:14.413Z,15.20
2017-01-02T12:19:13.366Z,15.30
2017-01-02T12:20:11.741Z,15.30
2017-01-02T12:21:14.051Z,15.30
2017-01-02T12:22:12.704Z,15.30
2017-01-02T12:23:11.862Z,15.40
2017-01-02T12:24:14.717Z,15.40
2017-01-02T12:25:12.212Z,15.40
2017-01-02T12:26:12.254Z,15.40
2017-01-02T12:27:11.668Z,15.50
2017-01-02T12:28:12.589Z,15.50
2017-01-02T12:29:11.558Z,15.50
2017-01-02T12:30:12.652Z,15.50
2017-01-02T12:31:12.926Z,15.50
2017-01-02T12:32:12.668Z,15.50
2017-01-02T12:33:15.023Z,15.50
2017-01-02T12:34:10.777Z,15.60
2017-01-02T12:35:11.802Z,15.60
2017-01-02T12:36:12.718Z,15.60
2017-01-02T12:37:13.366Z,15.60
2017-01-02T12:38:12.596Z,15.60
2017-01-02T12:39:12.212Z,15.60
2017-01-02T12:40:13.176Z,15.60
2017-01-02T12:41:12.280Z,15.60
2017-01-02T12:42:12.649Z,15.60
2017-01-02T12:43:11.801Z,15.50
2017-01-02T12:44:13.475Z,15.50
2017-01-02T12:45:11.816Z,15.50
2017-01-02T12:46:12.151Z,15.50
2017-01-02T12:47:12.146Z,15.50
2017-01-02T12:48:12.975Z,15.50
2017-01-02T12:49:11.488Z,15.50
2017-01-02T12:50:12.951Z,15.50
2017-01-02T12:51:12.369Z,15.50
2017-01-02T12:52:11.402Z,15.50
2017-01-02T12:53:11.513Z,15.50